sensor_id;sensor_type;location;lat;lon;timestamp;pressure;altitude;pressure_sealevel;temperature;humidity
48424;BME280;34232;42.502;26.014;2023-07-02T00:00:40;99257.06;;;22.88;66.88
48424;BME280;34232;42.502;26.014;2023-07-02T00:03:06;99254.38;;;22.88;67.86
48424;BME280;34232;42.502;26.014;2023-07-02T00:15:16;99223.31;;;22.74;67.38
48424;BME280;34232;42.502;26.014;2023-07-02T00:17:42;99213.63;;;22.73;66.96
48424;BME280;34232;42.502;26.014;2023-07-02T00:20:07;99210.22;;;22.66;67.34
48424;BME280;34232;42.502;26.014;2023-07-02T00:22:33;99197.69;;;22.60;67.35
48424;BME280;34232;42.502;26.014;2023-07-02T00:25:01;99199.66;;;22.53;67.09
48424;BME280;34232;42.502;26.014;2023-07-02T00:27:27;99202.03;;;22.43;67.52
48424;BME280;34232;42.502;26.014;2023-07-02T00:32:57;99209.03;;;22.44;68.05
48424;BME280;34232;42.502;26.014;2023-07-02T00:35:22;99214.25;;;22.20;67.28
48424;BME280;34232;42.502;26.014;2023-07-02T00:37:48;99210.44;;;22.28;67.75
48424;BME280;34232;42.502;26.014;2023-07-02T00:43:18;99204.69;;;22.06;67.80
48424;BME280;34232;42.502;26.014;2023-07-02T00:45:44;99216.47;;;22.05;69.01
48424;BME280;34232;42.502;26.014;2023-07-02T00:48:10;99223.38;;;21.88;67.28
48424;BME280;34232;42.502;26.014;2023-07-02T00:57:15;99236.66;;;21.51;66.18
48424;BME280;34232;42.502;26.014;2023-07-02T01:03:59;99227.00;;;21.75;65.39
48424;BME280;34232;42.502;26.014;2023-07-02T01:10:29;99239.19;;;21.96;64.29
48424;BME280;34232;42.502;26.014;2023-07-02T01:13:34;99241.75;;;22.09;64.67
48424;BME280;34232;42.502;26.014;2023-07-02T01:16:40;99231.66;;;22.11;64.50
48424;BME280;34232;42.502;26.014;2023-07-02T01:21:57;99228.13;;;22.11;64.27
48424;BME280;34232;42.502;26.014;2023-07-02T01:24:23;99225.84;;;22.14;64.47
48424;BME280;34232;42.502;26.014;2023-07-02T01:26:48;99231.22;;;22.14;64.71
48424;BME280;34232;42.502;26.014;2023-07-02T01:29:16;99233.28;;;22.12;64.85
48424;BME280;34232;42.502;26.014;2023-07-02T01:31:45;99249.38;;;22.12;65.33
48424;BME280;34232;42.502;26.014;2023-07-02T01:40:16;99230.91;;;22.04;66.45
48424;BME280;34232;42.502;26.014;2023-07-02T01:42:59;99222.25;;;22.02;66.19
48424;BME280;34232;42.502;26.014;2023-07-02T01:45:24;99229.94;;;21.92;66.83
48424;BME280;34232;42.502;26.014;2023-07-02T01:47:50;99236.19;;;21.86;67.87
48424;BME280;34232;42.502;26.014;2023-07-02T01:50:15;99230.63;;;21.87;68.11
48424;BME280;34232;42.502;26.014;2023-07-02T01:52:41;99234.53;;;21.85;68.30
48424;BME280;34232;42.502;26.014;2023-07-02T01:55:09;99231.88;;;21.85;67.91
48424;BME280;34232;42.502;26.014;2023-07-02T01:57:34;99216.81;;;21.84;68.46
48424;BME280;34232;42.502;26.014;2023-07-02T01:59:59;99213.75;;;21.80;68.65
48424;BME280;34232;42.502;26.014;2023-07-02T02:02:25;99209.22;;;21.81;68.12
48424;BME280;34232;42.502;26.014;2023-07-02T02:04:50;99207.56;;;21.80;69.08
48424;BME280;34232;42.502;26.014;2023-07-02T02:10:25;99206.31;;;21.82;67.93
48424;BME280;34232;42.502;26.014;2023-07-02T02:12:50;99213.97;;;21.79;68.16
48424;BME280;34232;42.502;26.014;2023-07-02T02:18:38;99222.72;;;21.43;68.32
48424;BME280;34232;42.502;26.014;2023-07-02T02:21:05;99218.94;;;21.50;67.61
48424;BME280;34232;42.502;26.014;2023-07-02T02:23:30;99215.19;;;21.58;68.29
48424;BME280;34232;42.502;26.014;2023-07-02T02:26:36;99216.16;;;21.63;67.76
48424;BME280;34232;42.502;26.014;2023-07-02T02:29:41;99216.56;;;21.67;68.50
48424;BME280;34232;42.502;26.014;2023-07-02T02:32:09;99215.31;;;21.70;67.67
48424;BME280;34232;42.502;26.014;2023-07-02T02:49:47;99242.25;;;21.43;67.24
48424;BME280;34232;42.502;26.014;2023-07-02T02:52:12;99246.59;;;21.44;67.86
48424;BME280;34232;42.502;26.014;2023-07-02T02:54:45;99247.47;;;21.38;67.35
48424;BME280;34232;42.502;26.014;2023-07-02T02:57:11;99252.84;;;21.32;66.96
48424;BME280;34232;42.502;26.014;2023-07-02T02:59:36;99256.25;;;21.45;66.94
48424;BME280;34232;42.502;26.014;2023-07-02T03:02:02;99261.19;;;21.48;66.77
48424;BME280;34232;42.502;26.014;2023-07-02T03:10:16;99244.69;;;21.51;65.17
48424;BME280;34232;42.502;26.014;2023-07-02T03:12:41;99241.19;;;21.51;65.95
48424;BME280;34232;42.502;26.014;2023-07-02T03:15:07;99246.06;;;21.60;66.17
48424;BME280;34232;42.502;26.014;2023-07-02T03:17:36;99245.41;;;21.65;66.01
48424;BME280;34232;42.502;26.014;2023-07-02T03:23:04;99254.28;;;21.65;65.55
48424;BME280;34232;42.502;26.014;2023-07-02T03:25:29;99257.16;;;21.64;67.16
48424;BME280;34232;42.502;26.014;2023-07-02T03:34:05;99252.59;;;21.71;67.54
48424;BME280;34232;42.502;26.014;2023-07-02T03:36:31;99256.09;;;21.72;66.45
48424;BME280;34232;42.502;26.014;2023-07-02T03:38:56;99263.00;;;21.54;67.55
48424;BME280;34232;42.502;26.014;2023-07-02T03:41:28;99267.59;;;21.47;67.17
48424;BME280;34232;42.502;26.014;2023-07-02T03:53:01;99278.03;;;21.24;68.89
48424;BME280;34232;42.502;26.014;2023-07-02T03:55:27;99265.59;;;21.36;69.56
48424;BME280;34232;42.502;26.014;2023-07-02T04:03:58;99267.59;;;21.47;70.39
48424;BME280;34232;42.502;26.014;2023-07-02T04:06:26;99277.44;;;21.53;68.83
48424;BME280;34232;42.502;26.014;2023-07-02T04:18:00;99269.47;;;22.03;67.40
48424;BME280;34232;42.502;26.014;2023-07-02T04:20:25;99264.63;;;22.12;67.70
48424;BME280;34232;42.502;26.014;2023-07-02T04:22:51;99267.88;;;22.20;67.55
48424;BME280;34232;42.502;26.014;2023-07-02T04:28:54;99283.25;;;22.50;65.84
48424;BME280;34232;42.502;26.014;2023-07-02T04:31:20;99279.38;;;22.64;65.26
48424;BME280;34232;42.502;26.014;2023-07-02T04:42:53;99294.97;;;22.92;64.96
48424;BME280;34232;42.502;26.014;2023-07-02T04:45:25;99287.22;;;23.02;64.96
48424;BME280;34232;42.502;26.014;2023-07-02T04:47:50;99285.50;;;23.08;64.28
48424;BME280;34232;42.502;26.014;2023-07-02T04:53:52;99277.19;;;23.27;66.42
48424;BME280;34232;42.502;26.014;2023-07-02T04:56:18;99282.47;;;23.34;65.31
48424;BME280;34232;42.502;26.014;2023-07-02T05:07:51;99296.00;;;23.57;63.99
48424;BME280;34232;42.502;26.014;2023-07-02T05:10:17;99300.69;;;23.62;63.26
48424;BME280;34232;42.502;26.014;2023-07-02T05:12:42;99303.97;;;23.64;61.29
48424;BME280;34232;42.502;26.014;2023-07-02T05:18:12;99301.19;;;23.70;59.13
48424;BME280;34232;42.502;26.014;2023-07-02T05:20:37;99304.47;;;23.72;61.43
48424;BME280;34232;42.502;26.014;2023-07-02T05:23:02;99304.38;;;23.79;60.20
48424;BME280;34232;42.502;26.014;2023-07-02T05:25:28;99301.47;;;23.92;61.87
48424;BME280;34232;42.502;26.014;2023-07-02T05:30:56;99293.00;;;24.42;58.89
48424;BME280;34232;42.502;26.014;2023-07-02T05:34:01;99293.44;;;24.74;57.72
48424;BME280;34232;42.502;26.014;2023-07-02T05:40:21;99297.66;;;25.22;54.41
48424;BME280;34232;42.502;26.014;2023-07-02T05:43:27;99282.47;;;25.44;54.42
48424;BME280;34232;42.502;26.014;2023-07-02T05:46:39;99279.50;;;25.74;53.01
48424;BME280;34232;42.502;26.014;2023-07-02T05:49:44;99281.88;;;26.04;50.61
48424;BME280;34232;42.502;26.014;2023-07-02T05:55:17;99277.97;;;26.67;50.12
48424;BME280;34232;42.502;26.014;2023-07-02T05:57:43;99282.97;;;26.97;50.24
48424;BME280;34232;42.502;26.014;2023-07-02T06:24:29;99290.78;;;26.55;51.90
48424;BME280;34232;42.502;26.014;2023-07-02T06:26:54;99288.00;;;26.49;51.28
48424;BME280;34232;42.502;26.014;2023-07-02T06:29:19;99293.25;;;26.39;55.28
48424;BME280;34232;42.502;26.014;2023-07-02T06:31:45;99290.97;;;26.31;52.93
48424;BME280;34232;42.502;26.014;2023-07-02T06:34:30;99301.69;;;26.26;53.34
48424;BME280;34232;42.502;26.014;2023-07-02T06:36:56;99303.22;;;26.22;55.54
48424;BME280;34232;42.502;26.014;2023-07-02T06:39:21;99306.97;;;26.21;57.14
48424;BME280;34232;42.502;26.014;2023-07-02T06:41:48;99305.84;;;26.17;56.91
48424;BME280;34232;42.502;26.014;2023-07-02T06:50:16;99300.63;;;26.10;54.57
48424;BME280;34232;42.502;26.014;2023-07-02T06:52:44;99306.91;;;26.16;59.46
48424;BME280;34232;42.502;26.014;2023-07-02T06:55:12;99317.78;;;26.21;59.83
48424;BME280;34232;42.502;26.014;2023-07-02T06:57:44;99324.25;;;26.20;56.02
48424;BME280;34232;42.502;26.014;2023-07-02T07:00:10;99321.63;;;26.08;53.77
48424;BME280;34232;42.502;26.014;2023-07-02T07:02:36;99317.63;;;26.11;53.44
48424;BME280;34232;42.502;26.014;2023-07-02T07:08:04;99323.66;;;26.01;55.52
48424;BME280;34232;42.502;26.014;2023-07-02T07:10:29;99322.50;;;26.14;55.69
48424;BME280;34232;42.502;26.014;2023-07-02T07:19:04;99335.72;;;26.44;54.23
48424;BME280;34232;42.502;26.014;2023-07-02T07:21:30;99339.53;;;26.48;54.93
48424;BME280;34232;42.502;26.014;2023-07-02T07:23:55;99342.19;;;26.43;54.53
48424;BME280;34232;42.502;26.014;2023-07-02T07:26:21;99335.63;;;26.56;56.05
48424;BME280;34232;42.502;26.014;2023-07-02T07:29:08;99327.34;;;26.84;55.86
48424;BME280;34232;42.502;26.014;2023-07-02T07:31:33;99328.72;;;27.03;54.05
48424;BME280;34232;42.502;26.014;2023-07-02T07:43:20;99326.38;;;27.34;52.79
48424;BME280;34232;42.502;26.014;2023-07-02T07:45:45;99330.22;;;27.38;52.93
48424;BME280;34232;42.502;26.014;2023-07-02T07:48:12;99320.47;;;27.37;53.10
48424;BME280;34232;42.502;26.014;2023-07-02T07:53:41;99298.34;;;27.40;54.53
48424;BME280;34232;42.502;26.014;2023-07-02T08:39:36;99285.91;;;27.44;55.63
48424;BME280;34232;42.502;26.014;2023-07-02T08:42:02;99284.75;;;27.57;53.18
48424;BME280;34232;42.502;26.014;2023-07-02T08:44:27;99286.78;;;27.23;53.00
48424;BME280;34232;42.502;26.014;2023-07-02T08:46:53;99296.66;;;27.12;53.65
48424;BME280;34232;42.502;26.014;2023-07-02T08:55:16;99285.34;;;26.71;56.87
48424;BME280;34232;42.502;26.014;2023-07-02T08:57:49;99282.38;;;26.73;57.56
48424;BME280;34232;42.502;26.014;2023-07-02T09:00:32;99283.50;;;26.94;57.55
48424;BME280;34232;42.502;26.014;2023-07-02T09:05:48;99283.84;;;27.51;56.45
48424;BME280;34232;42.502;26.014;2023-07-02T09:08:22;99279.09;;;27.58;56.58
48424;BME280;34232;42.502;26.014;2023-07-02T09:10:47;99282.06;;;27.89;60.12
48424;BME280;34232;42.502;26.014;2023-07-02T09:13:12;99271.41;;;28.14;55.30
48424;BME280;34232;42.502;26.014;2023-07-02T09:15:38;99267.06;;;28.08;53.87
48424;BME280;34232;42.502;26.014;2023-07-02T09:20:41;99270.34;;;28.15;53.03
48424;BME280;34232;42.502;26.014;2023-07-02T09:23:07;99273.69;;;28.22;52.35
48424;BME280;34232;42.502;26.014;2023-07-02T09:25:33;99263.50;;;28.39;53.27
48424;BME280;34232;42.502;26.014;2023-07-02T09:27:59;99272.66;;;28.33;51.43
48424;BME280;34232;42.502;26.014;2023-07-02T09:30:24;99270.00;;;28.43;52.15
48424;BME280;34232;42.502;26.014;2023-07-02T09:32:49;99267.38;;;28.53;51.12
48424;BME280;34232;42.502;26.014;2023-07-02T09:35:16;99273.22;;;28.82;50.48
48424;BME280;34232;42.502;26.014;2023-07-02T09:37:43;99268.72;;;29.03;49.72
48424;BME280;34232;42.502;26.014;2023-07-02T09:40:55;99276.38;;;29.32;49.73
48424;BME280;34232;42.502;26.014;2023-07-02T09:43:42;99266.97;;;29.70;46.94
48424;BME280;34232;42.502;26.014;2023-07-02T09:46:08;99269.94;;;29.78;46.95
48424;BME280;34232;42.502;26.014;2023-07-02T09:54:39;99270.47;;;30.26;46.33
48424;BME280;34232;42.502;26.014;2023-07-02T09:57:25;99263.94;;;30.42;45.19
48424;BME280;34232;42.502;26.014;2023-07-02T10:00:11;99249.25;;;30.43;46.50
48424;BME280;34232;42.502;26.014;2023-07-02T10:03:37;99253.38;;;30.25;46.50
48424;BME280;34232;42.502;26.014;2023-07-02T10:09:20;99240.59;;;30.31;44.66
48424;BME280;34232;42.502;26.014;2023-07-02T10:11:48;99248.16;;;30.39;44.68
48424;BME280;34232;42.502;26.014;2023-07-02T10:14:13;99242.75;;;30.39;44.12
48424;BME280;34232;42.502;26.014;2023-07-02T10:16:54;99237.28;;;30.54;44.65
48424;BME280;34232;42.502;26.014;2023-07-02T10:19:21;99236.66;;;30.83;44.27
48424;BME280;34232;42.502;26.014;2023-07-02T10:21:46;99238.16;;;31.04;44.43
48424;BME280;34232;42.502;26.014;2023-07-02T10:24:15;99238.72;;;31.01;43.80
48424;BME280;34232;42.502;26.014;2023-07-02T10:26:54;99233.34;;;30.91;43.21
48424;BME280;34232;42.502;26.014;2023-07-02T10:29:20;99245.84;;;30.92;43.10
48424;BME280;34232;42.502;26.014;2023-07-02T10:31:49;99230.34;;;30.92;45.56
48424;BME280;34232;42.502;26.014;2023-07-02T10:34:27;99231.16;;;30.93;44.57
48424;BME280;34232;42.502;26.014;2023-07-02T10:37:13;99228.91;;;31.10;45.12
48424;BME280;34232;42.502;26.014;2023-07-02T10:39:39;99224.19;;;31.26;43.26
48424;BME280;34232;42.502;26.014;2023-07-02T10:42:08;99226.53;;;31.43;42.88
48424;BME280;34232;42.502;26.014;2023-07-02T10:47:52;99221.31;;;31.02;44.63
48424;BME280;34232;42.502;26.014;2023-07-02T10:50:18;99222.88;;;31.18;43.01
48424;BME280;34232;42.502;26.014;2023-07-02T11:04:54;99217.47;;;31.52;40.78
48424;BME280;34232;42.502;26.014;2023-07-02T11:07:23;99217.31;;;31.39;42.63
48424;BME280;34232;42.502;26.014;2023-07-02T11:09:57;99222.88;;;31.18;41.76
48424;BME280;34232;42.502;26.014;2023-07-02T11:12:29;99216.97;;;31.01;42.44
48424;BME280;34232;42.502;26.014;2023-07-02T11:14:54;99223.06;;;30.78;42.28
48424;BME280;34232;42.502;26.014;2023-07-02T11:17:24;99212.09;;;30.98;42.18
48424;BME280;34232;42.502;26.014;2023-07-02T11:26:07;99212.91;;;30.34;45.22
48424;BME280;34232;42.502;26.014;2023-07-02T11:28:33;99216.47;;;30.19;46.39
48424;BME280;34232;42.502;26.014;2023-07-02T11:31:02;99209.63;;;30.32;46.42
48424;BME280;34232;42.502;26.014;2023-07-02T11:42:49;99215.34;;;30.25;46.52
48424;BME280;34232;42.502;26.014;2023-07-02T11:45:14;99219.47;;;29.67;46.98
48424;BME280;34232;42.502;26.014;2023-07-02T11:47:40;99216.22;;;29.70;46.96
48424;BME280;34232;42.502;26.014;2023-07-02T11:53:08;99221.59;;;29.30;47.37
48424;BME280;34232;42.502;26.014;2023-07-02T11:55:33;99213.44;;;29.19;48.34
48424;BME280;34232;42.502;26.014;2023-07-02T12:10:41;99218.28;;;29.02;47.76
48424;BME280;34232;42.502;26.014;2023-07-02T12:13:06;99223.97;;;29.01;46.62
48424;BME280;34232;42.502;26.014;2023-07-02T12:15:32;99210.84;;;28.77;45.47
48424;BME280;34232;42.502;26.014;2023-07-02T12:45:49;99205.53;;;28.35;57.25
48424;BME280;34232;42.502;26.014;2023-07-02T12:48:15;99213.13;;;28.38;56.04
48424;BME280;34232;42.502;26.014;2023-07-02T12:50:40;99216.47;;;28.13;54.27
48424;BME280;34232;42.502;26.014;2023-07-02T13:05:23;99245.47;;;28.18;54.77
48424;BME280;34232;42.502;26.014;2023-07-02T13:20:01;99233.66;;;27.92;55.65
48424;BME280;34232;42.502;26.014;2023-07-02T13:22:32;99233.38;;;27.94;56.32
48424;BME280;34232;42.502;26.014;2023-07-02T13:25:22;99229.69;;;28.05;56.20
48424;BME280;34232;42.502;26.014;2023-07-02T13:33:57;99219.53;;;28.27;55.41
48424;BME280;34232;42.502;26.014;2023-07-02T13:36:23;99225.59;;;28.44;56.29
48424;BME280;34232;42.502;26.014;2023-07-02T13:39:00;99212.66;;;28.51;56.30
48424;BME280;34232;42.502;26.014;2023-07-02T13:54:57;99202.44;;;28.79;56.39
48424;BME280;34232;42.502;26.014;2023-07-02T13:57:24;99204.09;;;28.80;55.28
48424;BME280;34232;42.502;26.014;2023-07-02T14:18:06;99202.94;;;28.66;50.40
48424;BME280;34232;42.502;26.014;2023-07-02T14:20:31;99194.84;;;28.71;51.02
48424;BME280;34232;42.502;26.014;2023-07-02T14:23:15;99192.13;;;28.71;52.77
48424;BME280;34232;42.502;26.014;2023-07-02T14:26:00;99192.69;;;28.78;54.12
48424;BME280;34232;42.502;26.014;2023-07-02T14:38:13;99198.72;;;28.95;59.40
48424;BME280;34232;42.502;26.014;2023-07-02T14:40:38;99199.81;;;28.94;57.88
48424;BME280;34232;42.502;26.014;2023-07-02T14:43:04;99198.72;;;28.90;57.05
48424;BME280;34232;42.502;26.014;2023-07-02T14:45:30;99205.75;;;28.86;57.78
48424;BME280;34232;42.502;26.014;2023-07-02T14:47:56;99203.06;;;28.86;57.61
48424;BME280;34232;42.502;26.014;2023-07-02T15:00:19;99209.59;;;28.43;58.01
48424;BME280;34232;42.502;26.014;2023-07-02T15:02:45;99216.91;;;28.42;57.80
48424;BME280;34232;42.502;26.014;2023-07-02T15:05:19;99214.75;;;28.44;57.49
48424;BME280;34232;42.502;26.014;2023-07-02T15:07:44;99234.53;;;28.45;57.88
48424;BME280;34232;42.502;26.014;2023-07-02T15:25:20;99245.28;;;26.46;67.26
48424;BME280;34232;42.502;26.014;2023-07-02T15:27:46;99239.50;;;26.21;69.03
48424;BME280;34232;42.502;26.014;2023-07-02T15:30:12;99248.53;;;26.10;69.48
48424;BME280;34232;42.502;26.014;2023-07-02T15:32:45;99247.47;;;26.11;70.09
48424;BME280;34232;42.502;26.014;2023-07-02T16:03:10;99254.44;;;25.73;66.84
48424;BME280;34232;42.502;26.014;2023-07-02T16:05:36;99247.09;;;25.57;68.87
48424;BME280;34232;42.502;26.014;2023-07-02T16:38:37;99251.63;;;26.02;66.35
48424;BME280;34232;42.502;26.014;2023-07-02T16:41:03;99253.84;;;25.88;67.90
48424;BME280;34232;42.502;26.014;2023-07-02T16:43:31;99248.44;;;26.05;68.04
48424;BME280;34232;42.502;26.014;2023-07-02T16:45:57;99244.91;;;26.21;68.00
48424;BME280;34232;42.502;26.014;2023-07-02T17:03:37;99274.69;;;26.65;67.72
48424;BME280;34232;42.502;26.014;2023-07-02T17:18:53;99290.41;;;26.68;68.03
48424;BME280;34232;42.502;26.014;2023-07-02T17:21:18;99291.59;;;26.55;68.21
48424;BME280;34232;42.502;26.014;2023-07-02T17:30:09;99312.88;;;25.28;71.61
48424;BME280;34232;42.502;26.014;2023-07-02T17:32:35;99316.91;;;25.14;72.16
48424;BME280;34232;42.502;26.014;2023-07-02T17:38:09;99305.28;;;24.50;75.80
48424;BME280;34232;42.502;26.014;2023-07-02T17:40:41;99311.84;;;24.30;77.94
48424;BME280;34232;42.502;26.014;2023-07-02T17:49:14;99302.94;;;24.53;78.60
48424;BME280;34232;42.502;26.014;2023-07-02T17:52:00;99296.13;;;24.74;77.64
48424;BME280;34232;42.502;26.014;2023-07-02T17:54:31;99303.84;;;24.82;76.54
48424;BME280;34232;42.502;26.014;2023-07-02T17:56:58;99307.81;;;24.68;76.85
48424;BME280;34232;42.502;26.014;2023-07-02T17:59:27;99300.47;;;24.40;78.37
48424;BME280;34232;42.502;26.014;2023-07-02T18:01:53;99295.78;;;24.12;80.41
48424;BME280;34232;42.502;26.014;2023-07-02T18:04:19;99291.75;;;24.03;81.17
48424;BME280;34232;42.502;26.014;2023-07-02T18:06:48;99290.75;;;24.16;80.31
48424;BME280;34232;42.502;26.014;2023-07-02T18:09:16;99280.47;;;24.24;79.91
48424;BME280;34232;42.502;26.014;2023-07-02T18:11:41;99280.72;;;24.46;78.49
48424;BME280;34232;42.502;26.014;2023-07-02T18:14:07;99282.22;;;24.54;77.81
48424;BME280;34232;42.502;26.014;2023-07-02T18:16:32;99282.81;;;24.56;77.39
48424;BME280;34232;42.502;26.014;2023-07-02T18:18:59;99282.34;;;24.59;77.03
48424;BME280;34232;42.502;26.014;2023-07-02T18:21:26;99298.53;;;24.87;77.49
48424;BME280;34232;42.502;26.014;2023-07-02T18:30:18;99289.94;;;24.62;76.47
48424;BME280;34232;42.502;26.014;2023-07-02T18:32:48;99285.34;;;24.74;77.57
48424;BME280;34232;42.502;26.014;2023-07-02T18:35:14;99295.38;;;24.90;77.12
48424;BME280;34232;42.502;26.014;2023-07-02T18:49:53;99291.97;;;25.06;75.35
48424;BME280;34232;42.502;26.014;2023-07-02T18:52:19;99292.09;;;25.12;75.46
48424;BME280;34232;42.502;26.014;2023-07-02T18:54:45;99302.69;;;25.18;75.10
48424;BME280;34232;42.502;26.014;2023-07-02T18:57:30;99295.94;;;25.16;75.43
48424;BME280;34232;42.502;26.014;2023-07-02T18:59:56;99297.38;;;25.06;75.46
48424;BME280;34232;42.502;26.014;2023-07-02T19:02:24;99292.91;;;25.00;75.18
48424;BME280;34232;42.502;26.014;2023-07-02T19:04:51;99294.31;;;25.03;75.57
48424;BME280;34232;42.502;26.014;2023-07-02T19:07:17;99292.38;;;24.98;75.78
48424;BME280;34232;42.502;26.014;2023-07-02T19:09:42;99296.13;;;24.97;76.04
48424;BME280;34232;42.502;26.014;2023-07-02T19:12:08;99301.00;;;25.00;70.89
48424;BME280;34232;42.502;26.014;2023-07-02T19:14:34;99300.53;;;25.03;67.12
48424;BME280;34232;42.502;26.014;2023-07-02T19:17:01;99303.81;;;25.05;65.64
48424;BME280;34232;42.502;26.014;2023-07-02T19:19:50;99308.09;;;25.18;64.51
48424;BME280;34232;42.502;26.014;2023-07-02T19:22:16;99314.81;;;25.16;64.13
48424;BME280;34232;42.502;26.014;2023-07-02T19:27:55;99323.31;;;25.24;61.73
48424;BME280;34232;42.502;26.014;2023-07-02T19:30:25;99314.03;;;25.32;61.38
48424;BME280;34232;42.502;26.014;2023-07-02T19:54:48;99338.78;;;25.57;61.19
48424;BME280;34232;42.502;26.014;2023-07-02T19:57:35;99338.44;;;25.54;61.22
48424;BME280;34232;42.502;26.014;2023-07-02T20:03:04;99343.97;;;25.47;61.39
48424;BME280;34232;42.502;26.014;2023-07-02T20:05:29;99344.81;;;25.36;61.61
48424;BME280;34232;42.502;26.014;2023-07-02T20:08:14;99348.00;;;25.33;61.01
48424;BME280;34232;42.502;26.014;2023-07-02T20:10:39;99353.38;;;25.33;60.48
48424;BME280;34232;42.502;26.014;2023-07-02T20:13:05;99357.16;;;25.32;60.32
48424;BME280;34232;42.502;26.014;2023-07-02T20:15:32;99354.34;;;25.27;61.30
48424;BME280;34232;42.502;26.014;2023-07-02T20:24:03;99369.75;;;23.43;82.30
48424;BME280;34232;42.502;26.014;2023-07-02T20:26:28;99368.72;;;23.08;85.66
48424;BME280;34232;42.502;26.014;2023-07-02T20:35:04;99375.38;;;22.62;89.58
48424;BME280;34232;42.502;26.014;2023-07-02T20:37:29;99377.31;;;22.73;89.03
48424;BME280;34232;42.502;26.014;2023-07-02T20:39:56;99371.19;;;22.91;88.09
48424;BME280;34232;42.502;26.014;2023-07-02T20:42:26;99383.94;;;22.95;87.56
48424;BME280;34232;42.502;26.014;2023-07-02T20:45:12;99390.22;;;23.08;87.17
48424;BME280;34232;42.502;26.014;2023-07-02T20:47:38;99388.56;;;23.07;87.66
48424;BME280;34232;42.502;26.014;2023-07-02T20:50:24;99384.34;;;22.99;87.82
48424;BME280;34232;42.502;26.014;2023-07-02T20:52:55;99390.09;;;23.02;87.69
48424;BME280;34232;42.502;26.014;2023-07-02T20:55:22;99399.63;;;22.98;87.82
48424;BME280;34232;42.502;26.014;2023-07-02T20:57:47;99397.97;;;22.97;88.13
48424;BME280;34232;42.502;26.014;2023-07-02T21:00:13;99397.38;;;23.14;87.39
48424;BME280;34232;42.502;26.014;2023-07-02T21:02:39;99401.41;;;23.23;86.53
48424;BME280;34232;42.502;26.014;2023-07-02T21:05:04;99401.28;;;23.36;85.69
48424;BME280;34232;42.502;26.014;2023-07-02T21:07:34;99397.66;;;23.42;84.95
48424;BME280;34232;42.502;26.014;2023-07-02T21:13:26;99394.75;;;23.44;83.25
48424;BME280;34232;42.502;26.014;2023-07-02T21:16:13;99407.38;;;23.43;82.99
48424;BME280;34232;42.502;26.014;2023-07-02T21:28:06;99407.38;;;23.43;81.85
48424;BME280;34232;42.502;26.014;2023-07-02T21:30:52;99411.53;;;23.39;82.32
48424;BME280;34232;42.502;26.014;2023-07-02T21:54:42;99433.34;;;23.49;82.28
48424;BME280;34232;42.502;26.014;2023-07-02T21:57:07;99439.13;;;23.53;81.23
48424;BME280;34232;42.502;26.014;2023-07-02T22:08:54;99424.19;;;23.57;77.45
48424;BME280;34232;42.502;26.014;2023-07-02T22:11:41;99422.91;;;23.59;78.19
48424;BME280;34232;42.502;26.014;2023-07-02T22:14:06;99425.59;;;23.59;79.00
48424;BME280;34232;42.502;26.014;2023-07-02T22:16:34;99427.09;;;23.55;77.98
48424;BME280;34232;42.502;26.014;2023-07-02T22:49:25;99420.34;;;23.10;82.13
48424;BME280;34232;42.502;26.014;2023-07-02T22:51:50;99413.22;;;23.03;82.80
48424;BME280;34232;42.502;26.014;2023-07-02T22:54:16;99410.53;;;23.03;83.07
48424;BME280;34232;42.502;26.014;2023-07-02T22:56:41;99413.66;;;23.00;82.85
48424;BME280;34232;42.502;26.014;2023-07-02T22:59:06;99412.44;;;22.96;82.92
48424;BME280;34232;42.502;26.014;2023-07-02T23:01:32;99413.91;;;22.92;83.11
48424;BME280;34232;42.502;26.014;2023-07-02T23:23:05;99405.56;;;22.82;82.08
48424;BME280;34232;42.502;26.014;2023-07-02T23:25:31;99401.84;;;22.83;81.57
48424;BME280;34232;42.502;26.014;2023-07-02T23:40:23;99408.09;;;22.77;82.04
48424;BME280;34232;42.502;26.014;2023-07-02T23:42:50;99408.13;;;22.46;82.91
48424;BME280;34232;42.502;26.014;2023-07-02T23:45:15;99409.13;;;22.51;82.83
48424;BME280;34232;42.502;26.014;2023-07-02T23:47:41;99418.78;;;22.27;84.22
48424;BME280;34232;42.502;26.014;2023-07-02T23:50:28;99419.75;;;22.08;85.36
48424;BME280;34232;42.502;26.014;2023-07-02T23:53:17;99422.16;;;22.23;84.78
48424;BME280;34232;42.502;26.014;2023-07-02T23:55:43;99411.03;;;22.19;83.81
48424;BME280;34232;42.502;26.014;2023-07-02T23:58:08;99417.38;;;21.87;85.06
